sensor_id;sensor_type;location;lat;lon;timestamp;P1;durP1;ratioP1;P2;durP2;ratioP2
1370;SDS011;14306;49.942;11.570;2024-03-06T00:00:34;27.02;;;14.70;;
1370;SDS011;14306;49.942;11.570;2024-03-06T00:02:07;28.10;;;15.40;;
1370;SDS011;14306;49.942;11.570;2024-03-06T00:03:44;27.40;;;15.30;;
1370;SDS011;14306;49.942;11.570;2024-03-06T00:05:18;35.00;;;15.85;;
1370;SDS011;14306;49.942;11.570;2024-03-06T00:06:51;25.33;;;14.38;;
1370;SDS011;14306;49.942;11.570;2024-03-06T00:08:28;29.75;;;14.98;;
1370;SDS011;14306;49.942;11.570;2024-03-06T00:10:01;27.63;;;15.00;;
1370;SDS011;14306;49.942;11.570;2024-03-06T00:11:38;29.05;;;14.85;;
1370;SDS011;14306;49.942;11.570;2024-03-06T00:13:12;24.45;;;14.50;;
1370;SDS011;14306;49.942;11.570;2024-03-06T00:14:47;27.65;;;14.48;;
1370;SDS011;14306;49.942;11.570;2024-03-06T00:16:20;23.85;;;13.88;;
1370;SDS011;14306;49.942;11.570;2024-03-06T00:17:55;23.17;;;12.70;;
1370;SDS011;14306;49.942;11.570;2024-03-06T00:19:29;22.98;;;12.77;;
1370;SDS011;14306;49.942;11.570;2024-03-06T00:21:04;24.27;;;13.45;;
1370;SDS011;14306;49.942;11.570;2024-03-06T00:22:39;24.85;;;13.52;;
1370;SDS011;14306;49.942;11.570;2024-03-06T00:24:12;22.40;;;13.90;;
1370;SDS011;14306;49.942;11.570;2024-03-06T00:25:47;24.85;;;13.45;;
1370;SDS011;14306;49.942;11.570;2024-03-06T00:27:21;27.13;;;14.60;;
1370;SDS011;14306;49.942;11.570;2024-03-06T00:28:54;27.42;;;15.63;;
1370;SDS011;14306;49.942;11.570;2024-03-06T00:30:29;30.45;;;15.35;;
1370;SDS011;14306;49.942;11.570;2024-03-06T00:32:02;25.60;;;14.45;;
1370;SDS011;14306;49.942;11.570;2024-03-06T00:33:37;25.88;;;13.32;;
1370;SDS011;14306;49.942;11.570;2024-03-06T00:35:11;29.35;;;15.48;;
1370;SDS011;14306;49.942;11.570;2024-03-06T00:36:46;24.48;;;13.43;;
1370;SDS011;14306;49.942;11.570;2024-03-06T00:38:19;23.77;;;14.15;;
1370;SDS011;14306;49.942;11.570;2024-03-06T00:39:53;24.63;;;13.88;;
1370;SDS011;14306;49.942;11.570;2024-03-06T00:41:27;27.55;;;16.00;;
1370;SDS011;14306;49.942;11.570;2024-03-06T00:43:01;24.73;;;14.55;;
1370;SDS011;14306;49.942;11.570;2024-03-06T00:44:34;22.15;;;13.00;;
1370;SDS011;14306;49.942;11.570;2024-03-06T00:46:09;21.08;;;13.05;;
1370;SDS011;14306;49.942;11.570;2024-03-06T00:47:43;20.98;;;13.43;;
1370;SDS011;14306;49.942;11.570;2024-03-06T00:49:17;22.75;;;12.43;;
1370;SDS011;14306;49.942;11.570;2024-03-06T00:50:52;30.50;;;13.70;;
1370;SDS011;14306;49.942;11.570;2024-03-06T00:52:26;24.52;;;13.95;;
1370;SDS011;14306;49.942;11.570;2024-03-06T00:54:00;21.00;;;12.15;;
1370;SDS011;14306;49.942;11.570;2024-03-06T00:55:34;20.80;;;12.93;;
1370;SDS011;14306;49.942;11.570;2024-03-06T00:57:08;25.38;;;13.38;;
1370;SDS011;14306;49.942;11.570;2024-03-06T00:58:42;19.63;;;11.48;;
1370;SDS011;14306;49.942;11.570;2024-03-06T01:00:17;19.30;;;12.63;;
1370;SDS011;14306;49.942;11.570;2024-03-06T01:01:51;19.55;;;10.90;;
1370;SDS011;14306;49.942;11.570;2024-03-06T01:03:28;20.67;;;12.50;;
1370;SDS011;14306;49.942;11.570;2024-03-06T01:05:03;20.55;;;12.48;;
1370;SDS011;14306;49.942;11.570;2024-03-06T01:06:38;19.50;;;11.70;;
1370;SDS011;14306;49.942;11.570;2024-03-06T01:08:12;17.70;;;11.45;;
1370;SDS011;14306;49.942;11.570;2024-03-06T01:09:48;23.27;;;12.77;;
1370;SDS011;14306;49.942;11.570;2024-03-06T01:11:22;31.30;;;16.00;;
1370;SDS011;14306;49.942;11.570;2024-03-06T01:12:55;27.27;;;14.88;;
1370;SDS011;14306;49.942;11.570;2024-03-06T01:14:29;28.92;;;16.50;;
1370;SDS011;14306;49.942;11.570;2024-03-06T01:16:03;28.80;;;15.68;;
1370;SDS011;14306;49.942;11.570;2024-03-06T01:17:38;30.25;;;16.38;;
1370;SDS011;14306;49.942;11.570;2024-03-06T01:19:12;32.42;;;15.63;;
1370;SDS011;14306;49.942;11.570;2024-03-06T01:20:46;23.73;;;14.82;;
1370;SDS011;14306;49.942;11.570;2024-03-06T01:22:20;28.73;;;15.57;;
1370;SDS011;14306;49.942;11.570;2024-03-06T01:23:55;24.20;;;13.98;;
1370;SDS011;14306;49.942;11.570;2024-03-06T01:25:30;29.67;;;16.63;;
1370;SDS011;14306;49.942;11.570;2024-03-06T01:27:04;32.45;;;16.15;;
1370;SDS011;14306;49.942;11.570;2024-03-06T01:28:37;29.40;;;15.57;;
1370;SDS011;14306;49.942;11.570;2024-03-06T01:30:11;24.85;;;13.98;;
1370;SDS011;14306;49.942;11.570;2024-03-06T01:31:45;28.90;;;15.07;;
1370;SDS011;14306;49.942;11.570;2024-03-06T01:33:20;31.13;;;16.67;;
1370;SDS011;14306;49.942;11.570;2024-03-06T01:34:53;24.55;;;14.30;;
1370;SDS011;14306;49.942;11.570;2024-03-06T01:36:27;32.50;;;15.60;;
1370;SDS011;14306;49.942;11.570;2024-03-06T01:38:02;28.20;;;15.38;;
1370;SDS011;14306;49.942;11.570;2024-03-06T01:39:36;29.63;;;16.50;;
1370;SDS011;14306;49.942;11.570;2024-03-06T01:41:09;38.20;;;16.70;;
1370;SDS011;14306;49.942;11.570;2024-03-06T01:42:45;31.48;;;15.05;;
1370;SDS011;14306;49.942;11.570;2024-03-06T01:44:19;30.95;;;15.95;;
1370;SDS011;14306;49.942;11.570;2024-03-06T01:45:53;28.55;;;14.82;;
1370;SDS011;14306;49.942;11.570;2024-03-06T01:47:26;24.13;;;13.25;;
1370;SDS011;14306;49.942;11.570;2024-03-06T01:49:00;27.27;;;15.30;;
1370;SDS011;14306;49.942;11.570;2024-03-06T01:50:36;27.65;;;16.63;;
1370;SDS011;14306;49.942;11.570;2024-03-06T01:52:11;27.20;;;14.70;;
1370;SDS011;14306;49.942;11.570;2024-03-06T01:53:49;23.38;;;14.25;;
1370;SDS011;14306;49.942;11.570;2024-03-06T01:55:23;27.13;;;15.95;;
1370;SDS011;14306;49.942;11.570;2024-03-06T01:56:57;27.17;;;14.13;;
1370;SDS011;14306;49.942;11.570;2024-03-06T01:58:34;25.95;;;13.88;;
1370;SDS011;14306;49.942;11.570;2024-03-06T02:00:09;29.30;;;17.20;;
1370;SDS011;14306;49.942;11.570;2024-03-06T02:01:46;28.63;;;14.38;;
1370;SDS011;14306;49.942;11.570;2024-03-06T02:03:21;25.50;;;14.70;;
1370;SDS011;14306;49.942;11.570;2024-03-06T02:04:54;32.22;;;14.23;;
1370;SDS011;14306;49.942;11.570;2024-03-06T02:06:29;28.70;;;15.75;;
1370;SDS011;14306;49.942;11.570;2024-03-06T02:08:06;29.60;;;15.07;;
1370;SDS011;14306;49.942;11.570;2024-03-06T02:09:42;36.92;;;17.08;;
1370;SDS011;14306;49.942;11.570;2024-03-06T02:11:17;28.58;;;14.98;;
1370;SDS011;14306;49.942;11.570;2024-03-06T02:12:50;27.10;;;15.23;;
1370;SDS011;14306;49.942;11.570;2024-03-06T02:14:25;30.17;;;16.42;;
1370;SDS011;14306;49.942;11.570;2024-03-06T02:15:59;30.70;;;15.18;;
1370;SDS011;14306;49.942;11.570;2024-03-06T02:17:33;29.88;;;14.27;;
1370;SDS011;14306;49.942;11.570;2024-03-06T02:19:07;26.40;;;14.20;;
1370;SDS011;14306;49.942;11.570;2024-03-06T02:20:44;26.88;;;14.95;;
1370;SDS011;14306;49.942;11.570;2024-03-06T02:22:18;32.08;;;15.88;;
1370;SDS011;14306;49.942;11.570;2024-03-06T02:23:52;29.63;;;18.42;;
1370;SDS011;14306;49.942;11.570;2024-03-06T02:25:26;22.80;;;14.02;;
1370;SDS011;14306;49.942;11.570;2024-03-06T02:27:00;29.13;;;14.88;;
1370;SDS011;14306;49.942;11.570;2024-03-06T02:28:34;30.52;;;15.40;;
1370;SDS011;14306;49.942;11.570;2024-03-06T02:30:08;25.27;;;15.23;;
1370;SDS011;14306;49.942;11.570;2024-03-06T02:31:42;30.77;;;16.35;;
1370;SDS011;14306;49.942;11.570;2024-03-06T02:33:16;30.10;;;16.00;;
1370;SDS011;14306;49.942;11.570;2024-03-06T02:34:50;26.90;;;16.70;;
1370;SDS011;14306;49.942;11.570;2024-03-06T02:36:26;26.08;;;13.70;;
1370;SDS011;14306;49.942;11.570;2024-03-06T02:37:59;26.27;;;14.80;;
1370;SDS011;14306;49.942;11.570;2024-03-06T02:39:34;30.90;;;15.20;;
1370;SDS011;14306;49.942;11.570;2024-03-06T02:41:07;29.38;;;15.75;;
1370;SDS011;14306;49.942;11.570;2024-03-06T02:42:42;23.83;;;14.90;;
1370;SDS011;14306;49.942;11.570;2024-03-06T02:44:15;26.95;;;14.13;;
1370;SDS011;14306;49.942;11.570;2024-03-06T02:45:50;25.90;;;13.82;;
1370;SDS011;14306;49.942;11.570;2024-03-06T02:47:25;29.33;;;13.85;;
1370;SDS011;14306;49.942;11.570;2024-03-06T02:48:58;26.60;;;14.05;;
1370;SDS011;14306;49.942;11.570;2024-03-06T02:50:32;27.70;;;15.10;;
1370;SDS011;14306;49.942;11.570;2024-03-06T02:52:08;29.42;;;15.70;;
1370;SDS011;14306;49.942;11.570;2024-03-06T02:53:41;26.10;;;13.55;;
1370;SDS011;14306;49.942;11.570;2024-03-06T02:55:15;27.38;;;13.75;;
1370;SDS011;14306;49.942;11.570;2024-03-06T02:56:51;26.95;;;14.40;;
1370;SDS011;14306;49.942;11.570;2024-03-06T02:58:24;25.75;;;14.32;;
1370;SDS011;14306;49.942;11.570;2024-03-06T03:00:00;23.17;;;12.95;;
1370;SDS011;14306;49.942;11.570;2024-03-06T03:01:37;24.80;;;14.00;;
1370;SDS011;14306;49.942;11.570;2024-03-06T03:03:11;28.42;;;15.05;;
1370;SDS011;14306;49.942;11.570;2024-03-06T03:04:45;29.40;;;15.20;;
1370;SDS011;14306;49.942;11.570;2024-03-06T03:06:19;26.95;;;14.32;;
1370;SDS011;14306;49.942;11.570;2024-03-06T03:07:54;28.55;;;15.40;;
1370;SDS011;14306;49.942;11.570;2024-03-06T03:09:28;27.48;;;14.50;;
1370;SDS011;14306;49.942;11.570;2024-03-06T03:11:02;26.05;;;14.13;;
1370;SDS011;14306;49.942;11.570;2024-03-06T03:12:38;27.75;;;14.25;;
1370;SDS011;14306;49.942;11.570;2024-03-06T03:14:11;28.65;;;14.68;;
1370;SDS011;14306;49.942;11.570;2024-03-06T03:15:45;24.10;;;14.50;;
1370;SDS011;14306;49.942;11.570;2024-03-06T03:17:20;32.28;;;15.52;;
1370;SDS011;14306;49.942;11.570;2024-03-06T03:18:54;28.35;;;13.48;;
1370;SDS011;14306;49.942;11.570;2024-03-06T03:20:28;27.98;;;14.27;;
1370;SDS011;14306;49.942;11.570;2024-03-06T03:22:02;25.77;;;13.90;;
1370;SDS011;14306;49.942;11.570;2024-03-06T03:23:39;24.85;;;13.80;;
1370;SDS011;14306;49.942;11.570;2024-03-06T03:25:13;30.58;;;15.18;;
1370;SDS011;14306;49.942;11.570;2024-03-06T03:26:46;29.17;;;14.45;;
1370;SDS011;14306;49.942;11.570;2024-03-06T03:28:21;25.52;;;15.10;;
1370;SDS011;14306;49.942;11.570;2024-03-06T03:29:54;29.92;;;14.65;;
1370;SDS011;14306;49.942;11.570;2024-03-06T03:31:28;29.88;;;14.73;;
1370;SDS011;14306;49.942;11.570;2024-03-06T03:33:02;25.98;;;14.18;;
1370;SDS011;14306;49.942;11.570;2024-03-06T03:34:36;25.40;;;14.40;;
1370;SDS011;14306;49.942;11.570;2024-03-06T03:36:10;27.42;;;15.57;;
1370;SDS011;14306;49.942;11.570;2024-03-06T03:37:44;24.45;;;13.63;;
1370;SDS011;14306;49.942;11.570;2024-03-06T03:39:19;28.42;;;14.45;;
1370;SDS011;14306;49.942;11.570;2024-03-06T03:40:54;26.58;;;13.93;;
1370;SDS011;14306;49.942;11.570;2024-03-06T03:42:28;32.63;;;14.20;;
1370;SDS011;14306;49.942;11.570;2024-03-06T03:44:03;28.33;;;14.50;;
1370;SDS011;14306;49.942;11.570;2024-03-06T03:45:36;34.03;;;14.80;;
1370;SDS011;14306;49.942;11.570;2024-03-06T03:47:11;27.30;;;15.75;;
1370;SDS011;14306;49.942;11.570;2024-03-06T03:48:45;26.25;;;13.70;;
1370;SDS011;14306;49.942;11.570;2024-03-06T03:50:20;24.10;;;13.30;;
1370;SDS011;14306;49.942;11.570;2024-03-06T03:51:53;29.73;;;14.65;;
1370;SDS011;14306;49.942;11.570;2024-03-06T03:53:28;28.92;;;14.13;;
1370;SDS011;14306;49.942;11.570;2024-03-06T03:55:04;28.05;;;13.60;;
1370;SDS011;14306;49.942;11.570;2024-03-06T03:56:40;24.88;;;14.52;;
1370;SDS011;14306;49.942;11.570;2024-03-06T03:58:13;28.27;;;13.27;;
1370;SDS011;14306;49.942;11.570;2024-03-06T03:59:47;29.95;;;14.50;;
1370;SDS011;14306;49.942;11.570;2024-03-06T04:01:21;26.25;;;13.80;;
1370;SDS011;14306;49.942;11.570;2024-03-06T04:02:56;29.42;;;14.57;;
1370;SDS011;14306;49.942;11.570;2024-03-06T04:04:29;31.20;;;15.25;;
1370;SDS011;14306;49.942;11.570;2024-03-06T04:06:06;27.75;;;14.82;;
1370;SDS011;14306;49.942;11.570;2024-03-06T04:07:40;30.05;;;14.73;;
1370;SDS011;14306;49.942;11.570;2024-03-06T04:09:15;31.48;;;14.52;;
1370;SDS011;14306;49.942;11.570;2024-03-06T04:10:50;26.20;;;15.38;;
1370;SDS011;14306;49.942;11.570;2024-03-06T04:12:25;28.90;;;14.07;;
1370;SDS011;14306;49.942;11.570;2024-03-06T04:13:59;26.00;;;13.43;;
1370;SDS011;14306;49.942;11.570;2024-03-06T04:15:33;27.65;;;15.13;;
1370;SDS011;14306;49.942;11.570;2024-03-06T04:17:07;26.73;;;14.65;;
1370;SDS011;14306;49.942;11.570;2024-03-06T04:18:41;30.40;;;15.60;;
1370;SDS011;14306;49.942;11.570;2024-03-06T04:20:15;28.60;;;13.20;;
1370;SDS011;14306;49.942;11.570;2024-03-06T04:21:50;29.48;;;14.80;;
1370;SDS011;14306;49.942;11.570;2024-03-06T04:23:24;30.50;;;14.77;;
1370;SDS011;14306;49.942;11.570;2024-03-06T04:24:59;30.83;;;16.13;;
1370;SDS011;14306;49.942;11.570;2024-03-06T04:26:36;28.15;;;13.85;;
1370;SDS011;14306;49.942;11.570;2024-03-06T04:28:10;25.77;;;13.32;;
1370;SDS011;14306;49.942;11.570;2024-03-06T04:29:43;28.00;;;14.57;;
1370;SDS011;14306;49.942;11.570;2024-03-06T04:31:18;35.58;;;14.73;;
1370;SDS011;14306;49.942;11.570;2024-03-06T04:32:52;30.65;;;16.13;;
1370;SDS011;14306;49.942;11.570;2024-03-06T04:34:26;30.25;;;15.00;;
1370;SDS011;14306;49.942;11.570;2024-03-06T04:36:00;29.60;;;15.38;;
1370;SDS011;14306;49.942;11.570;2024-03-06T04:37:36;34.50;;;15.68;;
1370;SDS011;14306;49.942;11.570;2024-03-06T04:39:11;34.45;;;14.50;;
1370;SDS011;14306;49.942;11.570;2024-03-06T04:40:44;30.02;;;15.32;;
1370;SDS011;14306;49.942;11.570;2024-03-06T04:42:20;32.20;;;16.27;;
1370;SDS011;14306;49.942;11.570;2024-03-06T04:43:53;32.72;;;16.30;;
1370;SDS011;14306;49.942;11.570;2024-03-06T04:45:31;28.60;;;15.20;;
1370;SDS011;14306;49.942;11.570;2024-03-06T04:47:04;25.90;;;13.88;;
1370;SDS011;14306;49.942;11.570;2024-03-06T04:48:39;31.25;;;15.50;;
1370;SDS011;14306;49.942;11.570;2024-03-06T04:50:12;32.72;;;16.13;;
1370;SDS011;14306;49.942;11.570;2024-03-06T04:51:48;25.88;;;14.25;;
1370;SDS011;14306;49.942;11.570;2024-03-06T04:53:22;31.92;;;15.23;;
1370;SDS011;14306;49.942;11.570;2024-03-06T04:54:57;29.75;;;14.38;;
1370;SDS011;14306;49.942;11.570;2024-03-06T04:56:30;28.92;;;15.02;;
1370;SDS011;14306;49.942;11.570;2024-03-06T04:58:06;27.33;;;14.07;;
1370;SDS011;14306;49.942;11.570;2024-03-06T04:59:41;26.42;;;13.32;;
1370;SDS011;14306;49.942;11.570;2024-03-06T05:01:14;28.10;;;13.25;;
1370;SDS011;14306;49.942;11.570;2024-03-06T05:02:49;37.95;;;15.95;;
1370;SDS011;14306;49.942;11.570;2024-03-06T05:04:40;32.97;;;15.95;;
1370;SDS011;14306;49.942;11.570;2024-03-06T05:06:32;36.80;;;14.73;;
1370;SDS011;14306;49.942;11.570;2024-03-06T05:08:23;30.13;;;14.70;;
1370;SDS011;14306;49.942;11.570;2024-03-06T05:10:15;28.30;;;13.80;;
1370;SDS011;14306;49.942;11.570;2024-03-06T05:12:07;30.60;;;14.02;;
1370;SDS011;14306;49.942;11.570;2024-03-06T05:14:00;32.55;;;14.98;;
1370;SDS011;14306;49.942;11.570;2024-03-06T05:15:52;28.52;;;13.90;;
1370;SDS011;14306;49.942;11.570;2024-03-06T05:17:44;27.77;;;14.82;;
1370;SDS011;14306;49.942;11.570;2024-03-06T05:19:36;29.65;;;13.43;;
1370;SDS011;14306;49.942;11.570;2024-03-06T05:21:27;32.03;;;16.13;;
1370;SDS011;14306;49.942;11.570;2024-03-06T05:23:19;37.00;;;16.35;;
1370;SDS011;14306;49.942;11.570;2024-03-06T05:25:11;30.60;;;15.23;;
1370;SDS011;14306;49.942;11.570;2024-03-06T05:27:02;28.45;;;13.65;;
1370;SDS011;14306;49.942;11.570;2024-03-06T05:28:54;31.88;;;14.90;;
1370;SDS011;14306;49.942;11.570;2024-03-06T05:30:47;29.75;;;15.50;;
1370;SDS011;14306;49.942;11.570;2024-03-06T05:32:40;33.35;;;14.23;;
1370;SDS011;14306;49.942;11.570;2024-03-06T05:34:32;31.40;;;16.40;;
1370;SDS011;14306;49.942;11.570;2024-03-06T05:36:24;33.10;;;16.20;;
1370;SDS011;14306;49.942;11.570;2024-03-06T05:38:16;35.90;;;16.55;;
1370;SDS011;14306;49.942;11.570;2024-03-06T05:40:09;39.95;;;14.63;;
1370;SDS011;14306;49.942;11.570;2024-03-06T05:42:02;37.22;;;16.38;;
1370;SDS011;14306;49.942;11.570;2024-03-06T05:43:53;36.70;;;17.13;;
1370;SDS011;14306;49.942;11.570;2024-03-06T05:45:48;40.90;;;17.05;;
1370;SDS011;14306;49.942;11.570;2024-03-06T05:47:39;37.20;;;17.13;;
1370;SDS011;14306;49.942;11.570;2024-03-06T05:49:31;33.80;;;16.58;;
1370;SDS011;14306;49.942;11.570;2024-03-06T05:51:24;34.88;;;15.40;;
1370;SDS011;14306;49.942;11.570;2024-03-06T05:53:16;35.33;;;16.10;;
1370;SDS011;14306;49.942;11.570;2024-03-06T05:55:08;36.88;;;16.77;;
1370;SDS011;14306;49.942;11.570;2024-03-06T05:57:00;35.10;;;16.63;;
1370;SDS011;14306;49.942;11.570;2024-03-06T05:58:53;36.35;;;16.80;;
1370;SDS011;14306;49.942;11.570;2024-03-06T06:00:28;33.53;;;16.23;;
1370;SDS011;14306;49.942;11.570;2024-03-06T06:02:04;34.17;;;14.90;;
1370;SDS011;14306;49.942;11.570;2024-03-06T06:03:37;37.20;;;16.50;;
1370;SDS011;14306;49.942;11.570;2024-03-06T06:05:13;33.50;;;15.65;;
1370;SDS011;14306;49.942;11.570;2024-03-06T06:06:55;36.47;;;16.38;;
1370;SDS011;14306;49.942;11.570;2024-03-06T06:08:30;31.50;;;15.98;;
1370;SDS011;14306;49.942;11.570;2024-03-06T06:10:04;42.15;;;17.17;;
1370;SDS011;14306;49.942;11.570;2024-03-06T06:11:42;40.38;;;18.25;;
1370;SDS011;14306;49.942;11.570;2024-03-06T06:13:18;38.70;;;17.83;;
1370;SDS011;14306;49.942;11.570;2024-03-06T06:14:52;37.53;;;17.42;;
1370;SDS011;14306;49.942;11.570;2024-03-06T06:16:26;42.65;;;19.13;;
1370;SDS011;14306;49.942;11.570;2024-03-06T06:18:02;35.30;;;17.48;;
1370;SDS011;14306;49.942;11.570;2024-03-06T06:19:37;37.40;;;17.52;;
1370;SDS011;14306;49.942;11.570;2024-03-06T06:21:11;41.60;;;15.88;;
1370;SDS011;14306;49.942;11.570;2024-03-06T06:22:45;35.35;;;15.10;;
1370;SDS011;14306;49.942;11.570;2024-03-06T06:24:19;34.97;;;17.63;;
1370;SDS011;14306;49.942;11.570;2024-03-06T06:25:54;41.88;;;17.17;;
1370;SDS011;14306;49.942;11.570;2024-03-06T06:27:27;38.78;;;17.42;;
1370;SDS011;14306;49.942;11.570;2024-03-06T06:29:02;35.35;;;15.65;;
1370;SDS011;14306;49.942;11.570;2024-03-06T06:30:35;37.10;;;16.80;;
1370;SDS011;14306;49.942;11.570;2024-03-06T06:32:11;35.33;;;16.05;;
1370;SDS011;14306;49.942;11.570;2024-03-06T06:33:45;36.40;;;15.20;;
1370;SDS011;14306;49.942;11.570;2024-03-06T06:35:20;37.45;;;16.85;;
1370;SDS011;14306;49.942;11.570;2024-03-06T06:36:55;30.92;;;15.00;;
1370;SDS011;14306;49.942;11.570;2024-03-06T06:38:30;35.40;;;15.55;;
1370;SDS011;14306;49.942;11.570;2024-03-06T06:40:03;30.67;;;14.68;;
1370;SDS011;14306;49.942;11.570;2024-03-06T06:41:39;33.35;;;15.85;;
1370;SDS011;14306;49.942;11.570;2024-03-06T06:43:13;29.42;;;14.80;;
1370;SDS011;14306;49.942;11.570;2024-03-06T06:44:48;30.98;;;15.35;;
1370;SDS011;14306;49.942;11.570;2024-03-06T06:46:22;30.92;;;14.45;;
1370;SDS011;14306;49.942;11.570;2024-03-06T06:47:57;29.48;;;14.60;;
1370;SDS011;14306;49.942;11.570;2024-03-06T06:49:32;27.73;;;13.35;;
1370;SDS011;14306;49.942;11.570;2024-03-06T06:51:07;27.73;;;12.93;;
1370;SDS011;14306;49.942;11.570;2024-03-06T06:52:40;26.05;;;13.88;;
1370;SDS011;14306;49.942;11.570;2024-03-06T06:54:15;25.20;;;13.20;;
1370;SDS011;14306;49.942;11.570;2024-03-06T06:55:49;26.92;;;13.48;;
1370;SDS011;14306;49.942;11.570;2024-03-06T06:57:24;23.98;;;12.45;;
1370;SDS011;14306;49.942;11.570;2024-03-06T06:58:58;25.98;;;13.65;;
1370;SDS011;14306;49.942;11.570;2024-03-06T07:00:33;22.35;;;11.75;;
1370;SDS011;14306;49.942;11.570;2024-03-06T07:02:07;25.38;;;12.30;;
1370;SDS011;14306;49.942;11.570;2024-03-06T07:03:42;30.10;;;13.18;;
1370;SDS011;14306;49.942;11.570;2024-03-06T07:05:17;27.73;;;14.48;;
1370;SDS011;14306;49.942;11.570;2024-03-06T07:06:52;30.30;;;14.45;;
1370;SDS011;14306;49.942;11.570;2024-03-06T07:08:26;25.70;;;14.25;;
1370;SDS011;14306;49.942;11.570;2024-03-06T07:10:00;31.15;;;14.88;;
1370;SDS011;14306;49.942;11.570;2024-03-06T07:11:35;31.98;;;17.00;;
1370;SDS011;14306;49.942;11.570;2024-03-06T07:13:09;30.35;;;15.52;;
1370;SDS011;14306;49.942;11.570;2024-03-06T07:14:43;27.58;;;14.88;;
1370;SDS011;14306;49.942;11.570;2024-03-06T07:16:17;26.38;;;15.27;;
1370;SDS011;14306;49.942;11.570;2024-03-06T07:17:53;31.48;;;15.77;;
1370;SDS011;14306;49.942;11.570;2024-03-06T07:19:26;40.10;;;14.93;;
1370;SDS011;14306;49.942;11.570;2024-03-06T07:21:02;28.20;;;14.95;;
1370;SDS011;14306;49.942;11.570;2024-03-06T07:22:36;31.15;;;15.25;;
1370;SDS011;14306;49.942;11.570;2024-03-06T07:24:11;30.02;;;15.23;;
1370;SDS011;14306;49.942;11.570;2024-03-06T07:25:44;28.73;;;15.73;;
1370;SDS011;14306;49.942;11.570;2024-03-06T07:27:19;34.03;;;16.00;;
1370;SDS011;14306;49.942;11.570;2024-03-06T07:28:53;30.83;;;15.48;;
1370;SDS011;14306;49.942;11.570;2024-03-06T07:30:28;42.50;;;16.73;;
1370;SDS011;14306;49.942;11.570;2024-03-06T07:32:02;33.08;;;16.20;;
1370;SDS011;14306;49.942;11.570;2024-03-06T07:33:38;30.88;;;14.10;;
1370;SDS011;14306;49.942;11.570;2024-03-06T07:35:12;26.60;;;15.75;;
1370;SDS011;14306;49.942;11.570;2024-03-06T07:36:48;28.83;;;15.20;;
1370;SDS011;14306;49.942;11.570;2024-03-06T07:38:22;28.95;;;15.32;;
1370;SDS011;14306;49.942;11.570;2024-03-06T07:39:56;32.55;;;16.70;;
1370;SDS011;14306;49.942;11.570;2024-03-06T07:41:31;31.90;;;15.63;;
1370;SDS011;14306;49.942;11.570;2024-03-06T07:43:06;34.03;;;17.25;;
1370;SDS011;14306;49.942;11.570;2024-03-06T07:44:40;26.67;;;15.00;;
1370;SDS011;14306;49.942;11.570;2024-03-06T07:46:14;31.60;;;17.08;;
1370;SDS011;14306;49.942;11.570;2024-03-06T07:47:48;30.60;;;17.42;;
1370;SDS011;14306;49.942;11.570;2024-03-06T07:49:23;31.20;;;18.15;;
1370;SDS011;14306;49.942;11.570;2024-03-06T07:50:57;31.67;;;17.85;;
1370;SDS011;14306;49.942;11.570;2024-03-06T07:52:32;31.17;;;16.50;;
1370;SDS011;14306;49.942;11.570;2024-03-06T07:54:07;29.92;;;17.42;;
1370;SDS011;14306;49.942;11.570;2024-03-06T07:55:42;31.52;;;15.52;;
1370;SDS011;14306;49.942;11.570;2024-03-06T07:57:15;34.35;;;17.77;;
1370;SDS011;14306;49.942;11.570;2024-03-06T07:58:50;31.55;;;17.65;;
1370;SDS011;14306;49.942;11.570;2024-03-06T08:00:24;31.40;;;16.58;;
1370;SDS011;14306;49.942;11.570;2024-03-06T08:01:59;29.83;;;17.42;;
1370;SDS011;14306;49.942;11.570;2024-03-06T08:03:33;34.03;;;17.58;;
1370;SDS011;14306;49.942;11.570;2024-03-06T08:05:08;30.38;;;17.60;;
1370;SDS011;14306;49.942;11.570;2024-03-06T08:06:45;31.55;;;16.35;;
1370;SDS011;14306;49.942;11.570;2024-03-06T08:08:21;34.20;;;16.67;;
1370;SDS011;14306;49.942;11.570;2024-03-06T08:09:55;30.23;;;16.27;;
1370;SDS011;14306;49.942;11.570;2024-03-06T08:11:29;28.83;;;15.93;;
1370;SDS011;14306;49.942;11.570;2024-03-06T08:13:04;28.85;;;15.32;;
1370;SDS011;14306;49.942;11.570;2024-03-06T08:14:39;33.80;;;17.60;;
1370;SDS011;14306;49.942;11.570;2024-03-06T08:16:12;30.67;;;18.05;;
1370;SDS011;14306;49.942;11.570;2024-03-06T08:17:48;35.85;;;16.55;;
1370;SDS011;14306;49.942;11.570;2024-03-06T08:19:23;28.35;;;15.77;;
1370;SDS011;14306;49.942;11.570;2024-03-06T08:20:59;33.30;;;17.83;;
1370;SDS011;14306;49.942;11.570;2024-03-06T08:22:33;30.02;;;16.55;;
1370;SDS011;14306;49.942;11.570;2024-03-06T08:24:13;30.75;;;16.63;;
1370;SDS011;14306;49.942;11.570;2024-03-06T08:25:50;23.98;;;13.65;;
1370;SDS011;14306;49.942;11.570;2024-03-06T08:27:24;22.30;;;13.32;;
1370;SDS011;14306;49.942;11.570;2024-03-06T08:28:58;28.02;;;15.25;;
1370;SDS011;14306;49.942;11.570;2024-03-06T08:30:33;23.70;;;13.47;;
1370;SDS011;14306;49.942;11.570;2024-03-06T08:32:07;25.60;;;13.33;;
1370;SDS011;14306;49.942;11.570;2024-03-06T08:33:42;24.90;;;13.50;;
1370;SDS011;14306;49.942;11.570;2024-03-06T08:35:17;25.40;;;13.63;;
1370;SDS011;14306;49.942;11.570;2024-03-06T08:36:54;19.02;;;11.77;;
1370;SDS011;14306;49.942;11.570;2024-03-06T08:38:28;23.05;;;13.40;;
1370;SDS011;14306;49.942;11.570;2024-03-06T08:40:06;19.98;;;11.38;;
1370;SDS011;14306;49.942;11.570;2024-03-06T08:41:43;19.80;;;11.88;;
1370;SDS011;14306;49.942;11.570;2024-03-06T08:43:18;21.77;;;12.25;;
1370;SDS011;14306;49.942;11.570;2024-03-06T08:44:52;25.05;;;12.80;;
1370;SDS011;14306;49.942;11.570;2024-03-06T08:46:26;23.90;;;12.17;;
1370;SDS011;14306;49.942;11.570;2024-03-06T08:48:00;21.97;;;12.67;;
1370;SDS011;14306;49.942;11.570;2024-03-06T08:49:36;19.40;;;12.57;;
1370;SDS011;14306;49.942;11.570;2024-03-06T08:51:10;20.20;;;12.13;;
1370;SDS011;14306;49.942;11.570;2024-03-06T08:52:44;23.27;;;13.03;;
1370;SDS011;14306;49.942;11.570;2024-03-06T08:54:18;20.27;;;12.10;;
1370;SDS011;14306;49.942;11.570;2024-03-06T08:55:55;18.43;;;11.53;;
1370;SDS011;14306;49.942;11.570;2024-03-06T08:57:28;20.47;;;13.73;;
1370;SDS011;14306;49.942;11.570;2024-03-06T08:59:03;20.73;;;12.43;;
1370;SDS011;14306;49.942;11.570;2024-03-06T09:00:38;23.63;;;11.77;;
1370;SDS011;14306;49.942;11.570;2024-03-06T09:02:14;17.23;;;10.50;;
1370;SDS011;14306;49.942;11.570;2024-03-06T09:03:49;21.50;;;12.57;;
1370;SDS011;14306;49.942;11.570;2024-03-06T09:05:23;18.73;;;11.93;;
1370;SDS011;14306;49.942;11.570;2024-03-06T09:06:56;19.83;;;11.50;;
1370;SDS011;14306;49.942;11.570;2024-03-06T09:08:31;23.10;;;11.70;;
1370;SDS011;14306;49.942;11.570;2024-03-06T09:10:05;21.93;;;11.67;;
1370;SDS011;14306;49.942;11.570;2024-03-06T09:11:41;18.37;;;11.60;;
1370;SDS011;14306;49.942;11.570;2024-03-06T09:13:15;15.80;;;10.80;;
1370;SDS011;14306;49.942;11.570;2024-03-06T09:14:49;20.27;;;12.13;;
1370;SDS011;14306;49.942;11.570;2024-03-06T09:16:23;20.70;;;11.60;;
1370;SDS011;14306;49.942;11.570;2024-03-06T09:17:58;19.23;;;11.02;;
1370;SDS011;14306;49.942;11.570;2024-03-06T09:19:32;18.05;;;10.95;;
1370;SDS011;14306;49.942;11.570;2024-03-06T09:21:07;18.85;;;11.23;;